sensor_id;sensor_type;location;lat;lon;timestamp;temperature;humidity
70068;DHT22;57425;51.616;6.680;2024-03-08T00:00:18;7.70;76.00
70068;DHT22;57425;51.616;6.680;2024-03-08T00:02:46;7.70;75.90
70068;DHT22;57425;51.616;6.680;2024-03-08T00:05:12;7.70;75.90
70068;DHT22;57425;51.616;6.680;2024-03-08T00:07:39;7.70;75.90
70068;DHT22;57425;51.616;6.680;2024-03-08T00:10:06;7.70;75.90
70068;DHT22;57425;51.616;6.680;2024-03-08T00:12:32;7.70;75.80
70068;DHT22;57425;51.616;6.680;2024-03-08T00:14:58;7.60;75.90
70068;DHT22;57425;51.616;6.680;2024-03-08T00:17:24;7.60;75.80
70068;DHT22;57425;51.616;6.680;2024-03-08T00:19:50;7.60;75.90
70068;DHT22;57425;51.616;6.680;2024-03-08T00:22:19;7.60;75.90
70068;DHT22;57425;51.616;6.680;2024-03-08T00:24:45;7.60;75.80
70068;DHT22;57425;51.616;6.680;2024-03-08T00:27:11;7.60;75.80
70068;DHT22;57425;51.616;6.680;2024-03-08T00:29:37;7.60;75.80
70068;DHT22;57425;51.616;6.680;2024-03-08T00:32:05;7.60;75.80
70068;DHT22;57425;51.616;6.680;2024-03-08T00:34:36;7.50;75.70
70068;DHT22;57425;51.616;6.680;2024-03-08T00:37:03;7.50;75.70
70068;DHT22;57425;51.616;6.680;2024-03-08T00:39:29;7.50;75.70
70068;DHT22;57425;51.616;6.680;2024-03-08T00:41:55;7.50;75.60
70068;DHT22;57425;51.616;6.680;2024-03-08T00:44:20;7.50;75.60
70068;DHT22;57425;51.616;6.680;2024-03-08T00:46:46;7.50;75.60
70068;DHT22;57425;51.616;6.680;2024-03-08T00:49:12;7.40;75.50
70068;DHT22;57425;51.616;6.680;2024-03-08T00:51:38;7.40;75.50
70068;DHT22;57425;51.616;6.680;2024-03-08T00:54:03;7.40;75.50
70068;DHT22;57425;51.616;6.680;2024-03-08T00:56:29;7.40;75.50
70068;DHT22;57425;51.616;6.680;2024-03-08T00:58:55;7.50;75.50
70068;DHT22;57425;51.616;6.680;2024-03-08T01:01:21;7.40;75.50
70068;DHT22;57425;51.616;6.680;2024-03-08T01:03:46;7.40;75.50
70068;DHT22;57425;51.616;6.680;2024-03-08T01:06:12;7.40;75.50
70068;DHT22;57425;51.616;6.680;2024-03-08T01:08:38;7.40;75.40
70068;DHT22;57425;51.616;6.680;2024-03-08T01:11:08;7.30;75.40
70068;DHT22;57425;51.616;6.680;2024-03-08T01:13:34;7.30;75.30
70068;DHT22;57425;51.616;6.680;2024-03-08T01:16:00;7.30;75.40
70068;DHT22;57425;51.616;6.680;2024-03-08T01:18:25;7.30;75.40
70068;DHT22;57425;51.616;6.680;2024-03-08T01:20:51;7.30;75.30
70068;DHT22;57425;51.616;6.680;2024-03-08T01:23:17;7.30;75.30
70068;DHT22;57425;51.616;6.680;2024-03-08T01:25:42;7.20;75.50
70068;DHT22;57425;51.616;6.680;2024-03-08T01:28:09;7.20;75.20
70068;DHT22;57425;51.616;6.680;2024-03-08T01:30:35;7.20;75.20
70068;DHT22;57425;51.616;6.680;2024-03-08T01:33:02;7.20;75.20
70068;DHT22;57425;51.616;6.680;2024-03-08T01:35:28;7.20;75.10
70068;DHT22;57425;51.616;6.680;2024-03-08T01:37:54;7.20;75.10
70068;DHT22;57425;51.616;6.680;2024-03-08T01:40:20;7.20;77.50
70068;DHT22;57425;51.616;6.680;2024-03-08T01:42:46;7.40;75.30
70068;DHT22;57425;51.616;6.680;2024-03-08T01:45:13;7.10;75.10
70068;DHT22;57425;51.616;6.680;2024-03-08T01:47:39;7.10;75.70
70068;DHT22;57425;51.616;6.680;2024-03-08T01:50:05;7.10;75.10
70068;DHT22;57425;51.616;6.680;2024-03-08T01:52:32;7.10;75.10
70068;DHT22;57425;51.616;6.680;2024-03-08T01:55:01;7.10;75.00
70068;DHT22;57425;51.616;6.680;2024-03-08T01:57:29;7.10;75.10
70068;DHT22;57425;51.616;6.680;2024-03-08T01:59:56;7.00;75.00
70068;DHT22;57425;51.616;6.680;2024-03-08T02:02:22;7.20;75.20
70068;DHT22;57425;51.616;6.680;2024-03-08T02:04:48;7.20;75.20
70068;DHT22;57425;51.616;6.680;2024-03-08T02:07:16;7.00;75.00
70068;DHT22;57425;51.616;6.680;2024-03-08T02:09:42;7.00;75.00
70068;DHT22;57425;51.616;6.680;2024-03-08T02:12:08;7.00;75.00
70068;DHT22;57425;51.616;6.680;2024-03-08T02:14:34;7.00;75.00
70068;DHT22;57425;51.616;6.680;2024-03-08T02:17:02;7.00;75.00
70068;DHT22;57425;51.616;6.680;2024-03-08T02:19:28;7.00;75.00
70068;DHT22;57425;51.616;6.680;2024-03-08T02:21:53;7.00;75.00
70068;DHT22;57425;51.616;6.680;2024-03-08T02:24:19;7.00;75.00
70068;DHT22;57425;51.616;6.680;2024-03-08T02:26:45;6.90;74.90
70068;DHT22;57425;51.616;6.680;2024-03-08T02:29:11;6.90;74.90
70068;DHT22;57425;51.616;6.680;2024-03-08T02:31:38;6.90;74.90
70068;DHT22;57425;51.616;6.680;2024-03-08T02:34:04;6.90;74.80
70068;DHT22;57425;51.616;6.680;2024-03-08T02:36:30;6.90;74.80
70068;DHT22;57425;51.616;6.680;2024-03-08T02:39:02;6.80;74.80
70068;DHT22;57425;51.616;6.680;2024-03-08T02:41:28;6.80;74.80
70068;DHT22;57425;51.616;6.680;2024-03-08T02:43:53;6.80;74.80
70068;DHT22;57425;51.616;6.680;2024-03-08T02:46:20;6.80;74.70
70068;DHT22;57425;51.616;6.680;2024-03-08T02:48:46;6.80;74.70
70068;DHT22;57425;51.616;6.680;2024-03-08T02:51:12;6.80;74.70
70068;DHT22;57425;51.616;6.680;2024-03-08T02:53:39;6.80;74.70
70068;DHT22;57425;51.616;6.680;2024-03-08T02:56:04;6.80;74.80
70068;DHT22;57425;51.616;6.680;2024-03-08T02:58:34;6.80;74.70
70068;DHT22;57425;51.616;6.680;2024-03-08T03:00:59;6.70;74.70
70068;DHT22;57425;51.616;6.680;2024-03-08T03:03:25;6.70;74.70
70068;DHT22;57425;51.616;6.680;2024-03-08T03:05:52;6.70;74.60
70068;DHT22;57425;51.616;6.680;2024-03-08T03:08:21;6.70;75.00
70068;DHT22;57425;51.616;6.680;2024-03-08T03:10:47;6.70;74.60
70068;DHT22;57425;51.616;6.680;2024-03-08T03:13:12;6.70;74.60
70068;DHT22;57425;51.616;6.680;2024-03-08T03:15:39;6.70;77.90
70068;DHT22;57425;51.616;6.680;2024-03-08T03:18:07;6.60;74.60
70068;DHT22;57425;51.616;6.680;2024-03-08T03:20:33;6.60;74.60
70068;DHT22;57425;51.616;6.680;2024-03-08T03:23:02;6.60;74.60
70068;DHT22;57425;51.616;6.680;2024-03-08T03:25:28;6.60;74.60
70068;DHT22;57425;51.616;6.680;2024-03-08T03:27:59;6.60;74.60
70068;DHT22;57425;51.616;6.680;2024-03-08T03:30:25;6.60;74.60
70068;DHT22;57425;51.616;6.680;2024-03-08T03:32:59;6.60;74.50
70068;DHT22;57425;51.616;6.680;2024-03-08T03:35:26;6.60;74.50
70068;DHT22;57425;51.616;6.680;2024-03-08T03:37:52;6.60;74.50
70068;DHT22;57425;51.616;6.680;2024-03-08T03:40:34;6.50;74.50
70068;DHT22;57425;51.616;6.680;2024-03-08T03:43:00;6.50;74.50
70068;DHT22;57425;51.616;6.680;2024-03-08T03:45:26;6.50;74.50
70068;DHT22;57425;51.616;6.680;2024-03-08T03:47:51;6.50;74.50
70068;DHT22;57425;51.616;6.680;2024-03-08T03:50:20;6.50;74.50
70068;DHT22;57425;51.616;6.680;2024-03-08T03:52:46;6.50;74.60
70068;DHT22;57425;51.616;6.680;2024-03-08T03:55:12;6.40;74.40
70068;DHT22;57425;51.616;6.680;2024-03-08T03:57:39;6.40;74.50
70068;DHT22;57425;51.616;6.680;2024-03-08T04:00:06;6.40;74.40
70068;DHT22;57425;51.616;6.680;2024-03-08T04:02:31;6.40;74.50
70068;DHT22;57425;51.616;6.680;2024-03-08T04:04:57;6.40;74.40
70068;DHT22;57425;51.616;6.680;2024-03-08T04:07:24;6.40;74.40
70068;DHT22;57425;51.616;6.680;2024-03-08T04:09:50;6.40;74.40
70068;DHT22;57425;51.616;6.680;2024-03-08T04:12:15;6.40;74.40
70068;DHT22;57425;51.616;6.680;2024-03-08T04:14:42;6.30;74.30
70068;DHT22;57425;51.616;6.680;2024-03-08T04:17:08;6.40;74.40
70068;DHT22;57425;51.616;6.680;2024-03-08T04:19:37;6.30;74.30
70068;DHT22;57425;51.616;6.680;2024-03-08T04:22:03;6.30;74.30
70068;DHT22;57425;51.616;6.680;2024-03-08T04:26:56;6.30;73.80
70068;DHT22;57425;51.616;6.680;2024-03-08T04:29:23;6.40;74.30
70068;DHT22;57425;51.616;6.680;2024-03-08T04:31:48;6.30;74.20
70068;DHT22;57425;51.616;6.680;2024-03-08T04:34:14;6.30;74.30
70068;DHT22;57425;51.616;6.680;2024-03-08T04:36:41;6.20;74.20
70068;DHT22;57425;51.616;6.680;2024-03-08T04:39:06;6.20;74.20
70068;DHT22;57425;51.616;6.680;2024-03-08T04:41:37;6.20;74.20
70068;DHT22;57425;51.616;6.680;2024-03-08T04:44:03;6.20;74.20
70068;DHT22;57425;51.616;6.680;2024-03-08T04:46:30;6.20;74.20
70068;DHT22;57425;51.616;6.680;2024-03-08T04:48:55;6.30;74.30
70068;DHT22;57425;51.616;6.680;2024-03-08T04:51:22;6.20;74.20
70068;DHT22;57425;51.616;6.680;2024-03-08T04:53:48;6.20;74.20
70068;DHT22;57425;51.616;6.680;2024-03-08T04:56:13;6.10;74.20
70068;DHT22;57425;51.616;6.680;2024-03-08T04:58:39;6.10;74.20
70068;DHT22;57425;51.616;6.680;2024-03-08T05:01:04;6.10;74.20
70068;DHT22;57425;51.616;6.680;2024-03-08T05:03:30;6.10;74.20
70068;DHT22;57425;51.616;6.680;2024-03-08T05:05:56;6.10;74.20
70068;DHT22;57425;51.616;6.680;2024-03-08T05:08:22;6.10;74.20
70068;DHT22;57425;51.616;6.680;2024-03-08T05:10:47;6.10;74.20
70068;DHT22;57425;51.616;6.680;2024-03-08T05:13:13;6.10;74.20
70068;DHT22;57425;51.616;6.680;2024-03-08T05:15:39;6.00;74.10
70068;DHT22;57425;51.616;6.680;2024-03-08T05:18:05;6.00;74.10
70068;DHT22;57425;51.616;6.680;2024-03-08T05:20:31;6.00;74.20
70068;DHT22;57425;51.616;6.680;2024-03-08T05:22:57;6.10;74.20
70068;DHT22;57425;51.616;6.680;2024-03-08T05:25:26;6.00;74.10
70068;DHT22;57425;51.616;6.680;2024-03-08T05:27:52;6.00;74.10
70068;DHT22;57425;51.616;6.680;2024-03-08T05:30:18;6.00;74.10
70068;DHT22;57425;51.616;6.680;2024-03-08T05:32:43;6.00;74.10
70068;DHT22;57425;51.616;6.680;2024-03-08T05:35:12;6.10;74.10
70068;DHT22;57425;51.616;6.680;2024-03-08T05:37:38;5.90;74.00
70068;DHT22;57425;51.616;6.680;2024-03-08T05:40:05;5.90;74.00
70068;DHT22;57425;51.616;6.680;2024-03-08T05:42:35;5.90;74.00
70068;DHT22;57425;51.616;6.680;2024-03-08T05:45:00;5.90;74.10
70068;DHT22;57425;51.616;6.680;2024-03-08T05:47:26;5.90;74.60
70068;DHT22;57425;51.616;6.680;2024-03-08T05:49:52;5.90;74.00
70068;DHT22;57425;51.616;6.680;2024-03-08T05:52:19;5.90;74.00
70068;DHT22;57425;51.616;6.680;2024-03-08T05:54:44;6.10;74.10
70068;DHT22;57425;51.616;6.680;2024-03-08T05:57:11;5.80;74.00
70068;DHT22;57425;51.616;6.680;2024-03-08T05:59:36;5.80;74.00
70068;DHT22;57425;51.616;6.680;2024-03-08T06:02:02;5.80;74.00
70068;DHT22;57425;51.616;6.680;2024-03-08T06:04:28;5.80;74.00
70068;DHT22;57425;51.616;6.680;2024-03-08T06:06:55;5.80;74.00
70068;DHT22;57425;51.616;6.680;2024-03-08T06:09:22;5.80;74.00
70068;DHT22;57425;51.616;6.680;2024-03-08T06:11:49;5.80;74.00
70068;DHT22;57425;51.616;6.680;2024-03-08T06:14:14;5.80;74.00
70068;DHT22;57425;51.616;6.680;2024-03-08T06:16:46;5.70;73.90
70068;DHT22;57425;51.616;6.680;2024-03-08T06:19:13;5.70;73.90
70068;DHT22;57425;51.616;6.680;2024-03-08T06:21:39;5.70;73.90
70068;DHT22;57425;51.616;6.680;2024-03-08T06:26:31;5.70;73.40
70068;DHT22;57425;51.616;6.680;2024-03-08T06:28:57;5.70;73.90
70068;DHT22;57425;51.616;6.680;2024-03-08T06:31:24;5.70;73.90
70068;DHT22;57425;51.616;6.680;2024-03-08T06:33:50;5.70;73.90
70068;DHT22;57425;51.616;6.680;2024-03-08T06:36:19;5.70;73.90
70068;DHT22;57425;51.616;6.680;2024-03-08T06:38:49;5.70;73.90
70068;DHT22;57425;51.616;6.680;2024-03-08T06:41:15;5.60;73.80
70068;DHT22;57425;51.616;6.680;2024-03-08T06:46:08;5.60;73.30
70068;DHT22;57425;51.616;6.680;2024-03-08T06:48:34;5.70;73.90
70068;DHT22;57425;51.616;6.680;2024-03-08T06:53:26;5.60;73.30
70068;DHT22;57425;51.616;6.680;2024-03-08T06:55:52;5.60;73.70
70068;DHT22;57425;51.616;6.680;2024-03-08T06:58:17;5.60;73.70
70068;DHT22;57425;51.616;6.680;2024-03-08T07:00:43;5.60;73.70
70068;DHT22;57425;51.616;6.680;2024-03-08T07:03:09;5.60;73.70
70068;DHT22;57425;51.616;6.680;2024-03-08T07:05:37;5.60;73.80
70068;DHT22;57425;51.616;6.680;2024-03-08T07:08:04;5.60;73.70
70068;DHT22;57425;51.616;6.680;2024-03-08T07:10:29;5.50;73.70
70068;DHT22;57425;51.616;6.680;2024-03-08T07:12:55;5.50;73.70
70068;DHT22;57425;51.616;6.680;2024-03-08T07:15:21;5.50;73.80
70068;DHT22;57425;51.616;6.680;2024-03-08T07:17:48;5.50;73.70
70068;DHT22;57425;51.616;6.680;2024-03-08T07:20:14;5.50;73.70
70068;DHT22;57425;51.616;6.680;2024-03-08T07:22:47;5.50;73.70
70068;DHT22;57425;51.616;6.680;2024-03-08T07:25:13;5.50;73.80
70068;DHT22;57425;51.616;6.680;2024-03-08T07:27:50;5.60;76.90
70068;DHT22;57425;51.616;6.680;2024-03-08T07:30:23;5.60;76.00
70068;DHT22;57425;51.616;6.680;2024-03-08T07:33:08;5.50;73.60
70068;DHT22;57425;51.616;6.680;2024-03-08T07:35:38;5.50;73.60
70068;DHT22;57425;51.616;6.680;2024-03-08T07:38:08;5.50;73.60
70068;DHT22;57425;51.616;6.680;2024-03-08T07:40:41;5.40;73.60
70068;DHT22;57425;51.616;6.680;2024-03-08T07:43:10;5.50;73.60
70068;DHT22;57425;51.616;6.680;2024-03-08T07:45:37;5.50;73.60
70068;DHT22;57425;51.616;6.680;2024-03-08T07:48:03;5.40;73.50
70068;DHT22;57425;51.616;6.680;2024-03-08T07:50:29;5.40;73.50
70068;DHT22;57425;51.616;6.680;2024-03-08T07:52:55;5.40;73.50
70068;DHT22;57425;51.616;6.680;2024-03-08T07:55:21;5.40;73.50
70068;DHT22;57425;51.616;6.680;2024-03-08T07:57:49;5.40;73.40
70068;DHT22;57425;51.616;6.680;2024-03-08T08:00:16;5.40;73.50
70068;DHT22;57425;51.616;6.680;2024-03-08T08:02:45;5.40;73.40
70068;DHT22;57425;51.616;6.680;2024-03-08T08:05:11;5.50;73.80
70068;DHT22;57425;51.616;6.680;2024-03-08T08:07:37;5.40;73.40
70068;DHT22;57425;51.616;6.680;2024-03-08T08:10:04;5.50;73.50
70068;DHT22;57425;51.616;6.680;2024-03-08T08:12:32;5.40;73.40
70068;DHT22;57425;51.616;6.680;2024-03-08T08:14:59;5.50;73.50
70068;DHT22;57425;51.616;6.680;2024-03-08T08:17:25;5.40;73.40
70068;DHT22;57425;51.616;6.680;2024-03-08T08:19:51;5.40;73.50
70068;DHT22;57425;51.616;6.680;2024-03-08T08:22:16;5.40;73.40
70068;DHT22;57425;51.616;6.680;2024-03-08T08:24:43;5.40;73.50
70068;DHT22;57425;51.616;6.680;2024-03-08T08:27:09;5.40;73.50
70068;DHT22;57425;51.616;6.680;2024-03-08T08:29:37;5.60;73.60
70068;DHT22;57425;51.616;6.680;2024-03-08T08:32:03;5.40;73.50
70068;DHT22;57425;51.616;6.680;2024-03-08T08:34:29;5.40;73.50
70068;DHT22;57425;51.616;6.680;2024-03-08T08:36:55;5.40;73.50
70068;DHT22;57425;51.616;6.680;2024-03-08T08:39:21;5.40;73.50
70068;DHT22;57425;51.616;6.680;2024-03-08T08:41:48;5.40;73.50
70068;DHT22;57425;51.616;6.680;2024-03-08T08:44:14;5.50;73.60
70068;DHT22;57425;51.616;6.680;2024-03-08T08:46:40;5.40;73.60
70068;DHT22;57425;51.616;6.680;2024-03-08T08:49:06;5.50;73.60
70068;DHT22;57425;51.616;6.680;2024-03-08T08:51:34;5.50;73.60
70068;DHT22;57425;51.616;6.680;2024-03-08T08:54:00;5.50;73.60
70068;DHT22;57425;51.616;6.680;2024-03-08T08:56:25;5.50;74.20
70068;DHT22;57425;51.616;6.680;2024-03-08T08:58:52;5.60;73.60
70068;DHT22;57425;51.616;6.680;2024-03-08T09:01:19;5.50;73.60
70068;DHT22;57425;51.616;6.680;2024-03-08T09:03:44;5.50;73.60
70068;DHT22;57425;51.616;6.680;2024-03-08T09:06:12;5.50;73.60
70068;DHT22;57425;51.616;6.680;2024-03-08T09:08:41;5.50;73.60
70068;DHT22;57425;51.616;6.680;2024-03-08T09:11:07;5.50;73.70
70068;DHT22;57425;51.616;6.680;2024-03-08T09:13:33;5.50;73.70
70068;DHT22;57425;51.616;6.680;2024-03-08T09:16:02;5.60;74.30
70068;DHT22;57425;51.616;6.680;2024-03-08T09:18:30;5.50;73.70
70068;DHT22;57425;51.616;6.680;2024-03-08T09:20:57;5.50;73.70
70068;DHT22;57425;51.616;6.680;2024-03-08T09:23:23;5.60;73.80
70068;DHT22;57425;51.616;6.680;2024-03-08T09:25:49;5.60;73.80
70068;DHT22;57425;51.616;6.680;2024-03-08T09:28:15;5.60;73.80
70068;DHT22;57425;51.616;6.680;2024-03-08T09:30:41;5.60;73.80
70068;DHT22;57425;51.616;6.680;2024-03-08T09:33:07;5.60;73.80
70068;DHT22;57425;51.616;6.680;2024-03-08T09:35:33;5.60;73.90
70068;DHT22;57425;51.616;6.680;2024-03-08T09:37:58;5.70;74.50
70068;DHT22;57425;51.616;6.680;2024-03-08T09:40:24;5.70;74.00
70068;DHT22;57425;51.616;6.680;2024-03-08T09:42:51;5.70;74.00
70068;DHT22;57425;51.616;6.680;2024-03-08T09:45:20;5.70;74.00
70068;DHT22;57425;51.616;6.680;2024-03-08T09:47:47;5.70;74.00
70068;DHT22;57425;51.616;6.680;2024-03-08T09:50:14;5.70;74.00
70068;DHT22;57425;51.616;6.680;2024-03-08T09:52:40;5.80;74.10
70068;DHT22;57425;51.616;6.680;2024-03-08T09:55:06;5.80;74.10
70068;DHT22;57425;51.616;6.680;2024-03-08T09:57:33;5.80;74.10
70068;DHT22;57425;51.616;6.680;2024-03-08T09:59:59;5.80;74.20
70068;DHT22;57425;51.616;6.680;2024-03-08T10:02:25;5.80;74.20
70068;DHT22;57425;51.616;6.680;2024-03-08T10:04:51;5.80;74.20
70068;DHT22;57425;51.616;6.680;2024-03-08T10:07:18;5.80;74.20
70068;DHT22;57425;51.616;6.680;2024-03-08T10:09:44;5.90;74.30
70068;DHT22;57425;51.616;6.680;2024-03-08T10:12:16;5.90;74.90
70068;DHT22;57425;51.616;6.680;2024-03-08T10:14:42;5.90;74.40
70068;DHT22;57425;51.616;6.680;2024-03-08T10:17:08;6.00;74.50
70068;DHT22;57425;51.616;6.680;2024-03-08T10:19:34;6.00;74.50
70068;DHT22;57425;51.616;6.680;2024-03-08T10:21:59;6.00;74.50
70068;DHT22;57425;51.616;6.680;2024-03-08T10:24:25;6.00;74.50
70068;DHT22;57425;51.616;6.680;2024-03-08T10:27:01;6.00;74.50
70068;DHT22;57425;51.616;6.680;2024-03-08T10:29:31;6.10;74.60
70068;DHT22;57425;51.616;6.680;2024-03-08T10:31:58;6.10;74.60
70068;DHT22;57425;51.616;6.680;2024-03-08T10:34:24;6.10;74.60
70068;DHT22;57425;51.616;6.680;2024-03-08T10:36:52;6.10;74.70
70068;DHT22;57425;51.616;6.680;2024-03-08T10:39:23;6.20;74.80
70068;DHT22;57425;51.616;6.680;2024-03-08T10:41:57;6.20;74.80
70068;DHT22;57425;51.616;6.680;2024-03-08T10:47:24;6.20;74.80
70068;DHT22;57425;51.616;6.680;2024-03-08T10:49:55;6.20;74.80
70068;DHT22;57425;51.616;6.680;2024-03-08T10:52:29;6.20;74.90
70068;DHT22;57425;51.616;6.680;2024-03-08T10:54:57;6.30;74.90
70068;DHT22;57425;51.616;6.680;2024-03-08T10:57:25;6.30;74.90
70068;DHT22;57425;51.616;6.680;2024-03-08T10:59:53;6.30;75.50
70068;DHT22;57425;51.616;6.680;2024-03-08T11:02:20;6.30;74.90
70068;DHT22;57425;51.616;6.680;2024-03-08T11:04:50;6.30;75.00
70068;DHT22;57425;51.616;6.680;2024-03-08T11:07:20;6.40;75.00
70068;DHT22;57425;51.616;6.680;2024-03-08T11:09:48;6.40;75.00
70068;DHT22;57425;51.616;6.680;2024-03-08T11:12:25;6.40;75.00
70068;DHT22;57425;51.616;6.680;2024-03-08T11:14:53;6.50;75.10
70068;DHT22;57425;51.616;6.680;2024-03-08T11:17:40;6.50;75.10
70068;DHT22;57425;51.616;6.680;2024-03-08T11:20:17;6.50;75.10
70068;DHT22;57425;51.616;6.680;2024-03-08T11:23:00;6.50;75.70
70068;DHT22;57425;51.616;6.680;2024-03-08T11:25:40;6.50;75.10
70068;DHT22;57425;51.616;6.680;2024-03-08T11:28:28;6.60;75.20
70068;DHT22;57425;51.616;6.680;2024-03-08T11:33:34;6.60;75.20
70068;DHT22;57425;51.616;6.680;2024-03-08T11:36:12;6.60;75.20
70068;DHT22;57425;51.616;6.680;2024-03-08T11:41:09;6.70;75.30
70068;DHT22;57425;51.616;6.680;2024-03-08T11:43:42;6.70;75.30
70068;DHT22;57425;51.616;6.680;2024-03-08T11:46:12;6.80;75.30
70068;DHT22;57425;51.616;6.680;2024-03-08T11:48:41;6.80;75.30
70068;DHT22;57425;51.616;6.680;2024-03-08T11:51:08;6.80;75.40
70068;DHT22;57425;51.616;6.680;2024-03-08T11:53:34;6.80;75.30
70068;DHT22;57425;51.616;6.680;2024-03-08T11:58:32;6.90;74.90
70068;DHT22;57425;51.616;6.680;2024-03-08T12:01:08;6.90;75.40
70068;DHT22;57425;51.616;6.680;2024-03-08T12:03:41;6.90;75.40
70068;DHT22;57425;51.616;6.680;2024-03-08T12:06:12;6.90;75.40
70068;DHT22;57425;51.616;6.680;2024-03-08T12:08:41;6.90;75.40
70068;DHT22;57425;51.616;6.680;2024-03-08T12:11:06;7.00;75.40
70068;DHT22;57425;51.616;6.680;2024-03-08T12:13:33;7.00;75.50
70068;DHT22;57425;51.616;6.680;2024-03-08T12:16:03;7.00;75.50
70068;DHT22;57425;51.616;6.680;2024-03-08T12:18:33;7.00;75.50
70068;DHT22;57425;51.616;6.680;2024-03-08T12:21:12;7.10;75.50
70068;DHT22;57425;51.616;6.680;2024-03-08T12:23:43;7.10;75.40
70068;DHT22;57425;51.616;6.680;2024-03-08T12:26:14;7.10;75.50
70068;DHT22;57425;51.616;6.680;2024-03-08T12:28:40;7.10;75.50
70068;DHT22;57425;51.616;6.680;2024-03-08T12:31:07;7.10;75.50
70068;DHT22;57425;51.616;6.680;2024-03-08T12:33:51;7.20;75.60
70068;DHT22;57425;51.616;6.680;2024-03-08T12:36:18;7.20;75.60
70068;DHT22;57425;51.616;6.680;2024-03-08T12:38:48;7.20;75.60
70068;DHT22;57425;51.616;6.680;2024-03-08T12:41:14;7.30;75.60
70068;DHT22;57425;51.616;6.680;2024-03-08T12:43:41;7.50;75.80
70068;DHT22;57425;51.616;6.680;2024-03-08T12:46:07;7.30;75.70
70068;DHT22;57425;51.616;6.680;2024-03-08T12:48:35;7.30;75.70
70068;DHT22;57425;51.616;6.680;2024-03-08T12:51:09;7.30;75.70
70068;DHT22;57425;51.616;6.680;2024-03-08T12:53:35;7.40;75.70
70068;DHT22;57425;51.616;6.680;2024-03-08T12:56:01;7.40;75.70
70068;DHT22;57425;51.616;6.680;2024-03-08T12:58:29;7.40;75.70
70068;DHT22;57425;51.616;6.680;2024-03-08T13:00:54;7.50;75.80
70068;DHT22;57425;51.616;6.680;2024-03-08T13:03:20;7.50;75.80
70068;DHT22;57425;51.616;6.680;2024-03-08T13:05:48;7.50;75.80
70068;DHT22;57425;51.616;6.680;2024-03-08T13:08:15;7.60;75.80
70068;DHT22;57425;51.616;6.680;2024-03-08T13:10:41;7.50;75.80
70068;DHT22;57425;51.616;6.680;2024-03-08T13:13:12;7.50;75.80
70068;DHT22;57425;51.616;6.680;2024-03-08T13:15:40;7.60;75.80
70068;DHT22;57425;51.616;6.680;2024-03-08T13:18:06;7.60;75.90
70068;DHT22;57425;51.616;6.680;2024-03-08T13:20:34;7.60;75.80
70068;DHT22;57425;51.616;6.680;2024-03-08T13:23:03;7.60;75.80
70068;DHT22;57425;51.616;6.680;2024-03-08T13:25:30;7.60;75.80
70068;DHT22;57425;51.616;6.680;2024-03-08T13:27:56;7.70;75.90
70068;DHT22;57425;51.616;6.680;2024-03-08T13:30:24;7.70;75.90
70068;DHT22;57425;51.616;6.680;2024-03-08T13:32:55;7.70;76.00
70068;DHT22;57425;51.616;6.680;2024-03-08T13:35:20;7.70;75.90
70068;DHT22;57425;51.616;6.680;2024-03-08T13:37:55;7.70;75.90
70068;DHT22;57425;51.616;6.680;2024-03-08T13:40:21;7.80;76.00
70068;DHT22;57425;51.616;6.680;2024-03-08T13:42:47;7.80;76.00
70068;DHT22;57425;51.616;6.680;2024-03-08T13:45:14;7.80;76.00
70068;DHT22;57425;51.616;6.680;2024-03-08T13:47:43;7.90;76.00
70068;DHT22;57425;51.616;6.680;2024-03-08T13:50:10;7.90;76.60
70068;DHT22;57425;51.616;6.680;2024-03-08T13:52:39;7.90;76.00
70068;DHT22;57425;51.616;6.680;2024-03-08T13:55:05;7.90;76.00
70068;DHT22;57425;51.616;6.680;2024-03-08T13:57:32;7.90;76.00
70068;DHT22;57425;51.616;6.680;2024-03-08T13:59:58;8.00;76.10
70068;DHT22;57425;51.616;6.680;2024-03-08T14:02:24;8.00;76.10
70068;DHT22;57425;51.616;6.680;2024-03-08T14:04:53;8.00;76.10
70068;DHT22;57425;51.616;6.680;2024-03-08T14:07:20;8.00;76.10
70068;DHT22;57425;51.616;6.680;2024-03-08T14:09:46;8.00;76.10
70068;DHT22;57425;51.616;6.680;2024-03-08T14:12:11;8.10;76.20
70068;DHT22;57425;51.616;6.680;2024-03-08T14:14:40;8.10;76.70
70068;DHT22;57425;51.616;6.680;2024-03-08T14:17:06;8.10;76.20
70068;DHT22;57425;51.616;6.680;2024-03-08T14:19:32;8.10;76.20
70068;DHT22;57425;51.616;6.680;2024-03-08T14:21:59;8.10;76.20
70068;DHT22;57425;51.616;6.680;2024-03-08T14:24:25;8.10;76.10
70068;DHT22;57425;51.616;6.680;2024-03-08T14:26:51;8.20;76.80
70068;DHT22;57425;51.616;6.680;2024-03-08T14:29:17;8.20;76.20
70068;DHT22;57425;51.616;6.680;2024-03-08T14:31:44;8.20;76.20
70068;DHT22;57425;51.616;6.680;2024-03-08T14:34:10;8.20;76.20
70068;DHT22;57425;51.616;6.680;2024-03-08T14:36:36;8.30;76.30
70068;DHT22;57425;51.616;6.680;2024-03-08T14:39:03;8.30;76.30
70068;DHT22;57425;51.616;6.680;2024-03-08T14:41:29;8.30;76.30
70068;DHT22;57425;51.616;6.680;2024-03-08T14:43:55;8.30;76.30
70068;DHT22;57425;51.616;6.680;2024-03-08T14:46:22;8.30;76.30
70068;DHT22;57425;51.616;6.680;2024-03-08T14:48:54;8.40;76.60
70068;DHT22;57425;51.616;6.680;2024-03-08T14:51:20;8.40;76.30
70068;DHT22;57425;51.616;6.680;2024-03-08T14:53:48;8.40;76.30
70068;DHT22;57425;51.616;6.680;2024-03-08T14:56:16;8.40;76.30
70068;DHT22;57425;51.616;6.680;2024-03-08T14:58:45;8.70;76.50
70068;DHT22;57425;51.616;6.680;2024-03-08T15:01:12;8.50;76.30
70068;DHT22;57425;51.616;6.680;2024-03-08T15:03:40;8.50;76.30
70068;DHT22;57425;51.616;6.680;2024-03-08T15:06:05;8.50;76.30
70068;DHT22;57425;51.616;6.680;2024-03-08T15:08:41;8.50;76.30
70068;DHT22;57425;51.616;6.680;2024-03-08T15:11:07;8.50;76.30
70068;DHT22;57425;51.616;6.680;2024-03-08T15:13:35;8.60;76.30
70068;DHT22;57425;51.616;6.680;2024-03-08T15:16:09;8.60;76.30
70068;DHT22;57425;51.616;6.680;2024-03-08T15:18:44;8.60;76.30
70068;DHT22;57425;51.616;6.680;2024-03-08T15:21:14;8.60;76.30
70068;DHT22;57425;51.616;6.680;2024-03-08T15:23:46;8.60;76.30
70068;DHT22;57425;51.616;6.680;2024-03-08T15:26:17;8.60;76.30
70068;DHT22;57425;51.616;6.680;2024-03-08T15:28:43;8.60;76.30
70068;DHT22;57425;51.616;6.680;2024-03-08T15:31:10;8.60;76.20
70068;DHT22;57425;51.616;6.680;2024-03-08T15:33:39;8.70;76.30
70068;DHT22;57425;51.616;6.680;2024-03-08T15:36:14;8.60;76.20
70068;DHT22;57425;51.616;6.680;2024-03-08T15:38:42;8.70;76.30
70068;DHT22;57425;51.616;6.680;2024-03-08T15:41:12;8.70;76.30
70068;DHT22;57425;51.616;6.680;2024-03-08T15:43:40;8.70;76.30
70068;DHT22;57425;51.616;6.680;2024-03-08T15:46:06;8.70;76.30
70068;DHT22;57425;51.616;6.680;2024-03-08T15:48:33;8.70;76.20
70068;DHT22;57425;51.616;6.680;2024-03-08T15:51:02;8.70;76.20
70068;DHT22;57425;51.616;6.680;2024-03-08T15:53:29;8.80;76.30
70068;DHT22;57425;51.616;6.680;2024-03-08T15:55:58;8.80;76.30
70068;DHT22;57425;51.616;6.680;2024-03-08T15:58:24;8.80;76.30
70068;DHT22;57425;51.616;6.680;2024-03-08T16:00:50;8.80;76.30
70068;DHT22;57425;51.616;6.680;2024-03-08T16:03:18;8.80;76.20
70068;DHT22;57425;51.616;6.680;2024-03-08T16:05:44;8.90;76.20